createdAt,value
2023-02-11T00:00:22.323Z,1.52
2023-02-11T00:02:28.452Z,1.53
2023-02-11T00:04:32.398Z,1.58
2023-02-11T00:06:38.113Z,1.63
2023-02-11T00:08:41.752Z,1.65
2023-02-11T00:10:46.358Z,1.75
2023-02-11T00:12:49.551Z,1.66
2023-02-11T00:14:52.766Z,1.52
2023-02-11T00:16:55.816Z,1.55
2023-02-11T00:19:03.005Z,1.55
2023-02-11T00:21:10.423Z,1.64
2023-02-11T00:23:13.597Z,1.55
2023-02-11T00:25:15.836Z,1.55
2023-02-11T00:27:18.701Z,1.61
2023-02-11T00:29:21.664Z,1.58
2023-02-11T00:31:24.414Z,1.40
2023-02-11T00:33:26.347Z,1.50
2023-02-11T00:35:28.562Z,1.54
2023-02-11T00:37:30.099Z,1.50
2023-02-11T00:39:31.685Z,1.53
2023-02-11T00:41:34.985Z,1.65
2023-02-11T00:43:38.667Z,1.73
2023-02-11T00:45:40.955Z,1.73
2023-02-11T00:47:42.933Z,1.83
2023-02-11T00:49:44.715Z,1.79
2023-02-11T00:51:46.668Z,1.71
2023-02-11T00:53:48.492Z,1.55
2023-02-11T00:55:50.408Z,1.55
2023-02-11T00:57:52.121Z,1.65
2023-02-11T00:59:53.642Z,1.67
2023-02-11T01:01:55.585Z,1.80
2023-02-11T01:03:57.140Z,1.81
2023-02-11T01:05:58.681Z,1.92
2023-02-11T01:08:00.344Z,1.79
2023-02-11T01:10:02.191Z,1.83
2023-02-11T01:12:04.935Z,1.80
2023-02-11T01:14:07.405Z,1.69
2023-02-11T01:16:10.618Z,1.74
2023-02-11T01:18:12.159Z,1.84
2023-02-11T01:20:17.144Z,1.86
2023-02-11T01:22:18.734Z,1.93
2023-02-11T01:24:22.050Z,1.97
2023-02-11T01:26:23.547Z,1.93
2023-02-11T01:28:28.063Z,2.02
2023-02-11T01:30:29.771Z,1.88
2023-02-11T01:32:31.340Z,1.83
2023-02-11T01:34:32.862Z,1.87
2023-02-11T01:36:34.478Z,1.85
2023-02-11T01:38:36.521Z,1.88
2023-02-11T01:40:38.471Z,1.99
2023-02-11T01:42:41.118Z,1.91
2023-02-11T01:44:42.887Z,1.77
2023-02-11T01:46:45.391Z,1.93
2023-02-11T01:49:09.551Z,1.87
2023-02-11T01:51:17.006Z,1.79
2023-02-11T01:53:37.971Z,1.87
2023-02-11T01:55:58.038Z,1.82
2023-02-11T01:58:04.896Z,1.96
2023-02-11T02:00:21.506Z,1.85
2023-02-11T02:02:29.699Z,1.90
2023-02-11T02:04:35.331Z,1.82
2023-02-11T02:06:59.720Z,1.88
2023-02-11T02:09:08.670Z,1.98
2023-02-11T02:11:10.636Z,1.89
2023-02-11T02:13:13.377Z,1.97
2023-02-11T02:15:20.422Z,1.98
2023-02-11T02:17:37.795Z,1.98
2023-02-11T02:20:11.014Z,2.11
2023-02-11T02:22:27.629Z,1.92
2023-02-11T02:25:00.743Z,2.02
2023-02-11T02:27:32.245Z,1.95
2023-02-11T02:30:17.099Z,1.88
2023-02-11T02:32:37.781Z,1.85
2023-02-11T02:34:48.395Z,1.86
2023-02-11T02:37:10.665Z,1.81
2023-02-11T02:39:20.568Z,1.88
2023-02-11T02:41:32.308Z,1.85
2023-02-11T02:43:36.817Z,1.88
2023-02-11T02:45:38.587Z,1.76
2023-02-11T02:47:40.426Z,1.73
2023-02-11T02:49:41.919Z,1.76
2023-02-11T02:52:02.426Z,1.81
2023-02-11T02:54:23.829Z,1.92
2023-02-11T02:57:04.027Z,1.98
2023-02-11T02:59:19.888Z,1.93
2023-02-11T03:01:39.832Z,1.92
2023-02-11T03:03:56.344Z,1.95
2023-02-11T03:06:13.153Z,1.88
2023-02-11T03:08:27.750Z,1.86
2023-02-11T03:10:32.844Z,1.88
2023-02-11T03:12:36.249Z,1.89
2023-02-11T03:14:38.941Z,1.90
2023-02-11T03:16:43.291Z,1.83
2023-02-11T03:18:51.126Z,1.87
2023-02-11T03:20:54.361Z,1.80
2023-02-11T03:23:00.869Z,1.83
2023-02-11T03:25:03.371Z,1.80
2023-02-11T03:27:24.448Z,1.80
2023-02-11T03:29:54.568Z,1.71
2023-02-11T03:32:05.116Z,1.81
2023-02-11T03:34:14.466Z,1.85
2023-02-11T03:36:32.754Z,1.89
2023-02-11T03:38:39.748Z,1.94
2023-02-11T03:40:45.400Z,1.86
2023-02-11T03:42:56.798Z,1.85
2023-02-11T03:45:05.428Z,1.77
2023-02-11T03:47:10.548Z,1.79
2023-02-11T03:49:16.216Z,1.81
2023-02-11T03:51:20.516Z,1.79
2023-02-11T03:53:23.734Z,1.66
2023-02-11T03:55:26.197Z,1.68
2023-02-11T03:57:27.724Z,1.85
2023-02-11T03:59:29.770Z,1.77
2023-02-11T04:01:31.556Z,1.66
2023-02-11T04:03:33.381Z,1.52
2023-02-11T04:05:36.217Z,1.58
2023-02-11T04:07:37.755Z,1.54
2023-02-11T04:09:39.243Z,1.63
2023-02-11T04:11:40.801Z,1.59
2023-02-11T04:13:42.325Z,1.63
2023-02-11T04:15:43.961Z,1.61
2023-02-11T04:17:45.625Z,1.76
2023-02-11T04:19:47.107Z,1.64
2023-02-11T04:21:48.613Z,1.72
2023-02-11T04:23:50.261Z,1.83
2023-02-11T04:25:52.178Z,1.81
2023-02-11T04:27:54.161Z,1.89
2023-02-11T04:29:55.640Z,1.84
2023-02-11T04:31:57.278Z,1.84
2023-02-11T04:33:58.854Z,1.91
2023-02-11T04:36:00.330Z,1.83
2023-02-11T04:38:01.893Z,1.80
2023-02-11T04:40:04.098Z,1.71
2023-02-11T04:42:05.957Z,1.72
2023-02-11T04:44:07.775Z,1.67
2023-02-11T04:46:09.401Z,1.71
2023-02-11T04:48:10.960Z,1.73
2023-02-11T04:50:12.475Z,1.76
2023-02-11T04:52:14.840Z,1.83
2023-02-11T04:54:17.386Z,1.84
2023-02-11T04:56:19.579Z,1.79
2023-02-11T04:58:21.201Z,1.77
2023-02-11T05:00:22.763Z,1.83
2023-02-11T05:02:24.328Z,1.85
2023-02-11T05:04:26.210Z,1.88
2023-02-11T05:06:27.834Z,1.78
2023-02-11T05:08:29.875Z,1.80
2023-02-11T05:10:31.420Z,1.93
2023-02-11T05:12:33.042Z,1.84
2023-02-11T05:14:34.660Z,1.83
2023-02-11T05:16:36.574Z,1.75
2023-02-11T05:18:39.639Z,1.61
2023-02-11T05:20:42.064Z,1.68
2023-02-11T05:22:43.660Z,1.81
2023-02-11T05:24:45.177Z,1.87
2023-02-11T05:26:46.867Z,1.72
2023-02-11T05:28:48.439Z,1.77
2023-02-11T05:30:49.979Z,1.73
2023-02-11T05:32:51.580Z,1.67
2023-02-11T05:34:53.155Z,1.71
2023-02-11T05:36:55.121Z,1.76
2023-02-11T05:38:56.799Z,1.73
2023-02-11T05:40:58.436Z,1.71
2023-02-11T05:43:00.117Z,1.82
2023-02-11T05:45:01.985Z,1.89
2023-02-11T05:47:03.526Z,1.92
2023-02-11T05:49:05.341Z,1.83
2023-02-11T05:51:06.868Z,1.75
2023-02-11T05:53:09.205Z,1.57
2023-02-11T05:55:11.283Z,1.75
2023-02-11T05:57:13.280Z,1.76
2023-02-11T05:59:15.022Z,1.79
2023-02-11T06:01:16.630Z,1.88
2023-02-11T06:03:18.241Z,1.91
2023-02-11T06:05:20.032Z,1.84
2023-02-11T06:07:21.610Z,1.84
2023-02-11T06:09:23.285Z,1.90
2023-02-11T06:11:25.377Z,1.85
2023-02-11T06:13:26.902Z,1.80
2023-02-11T06:15:28.691Z,1.77
2023-02-11T06:17:33.668Z,1.83
2023-02-11T06:19:35.397Z,1.90
2023-02-11T06:21:43.983Z,1.87
2023-02-11T06:23:45.977Z,1.89
2023-02-11T06:25:47.847Z,1.73
2023-02-11T06:27:49.688Z,1.77
2023-02-11T06:29:52.718Z,1.85
2023-02-11T06:31:54.471Z,1.88
2023-02-11T06:33:56.238Z,1.79
2023-02-11T06:35:58.223Z,1.82
2023-02-11T06:38:00.409Z,1.77
2023-02-11T06:40:02.054Z,1.79
2023-02-11T06:42:05.390Z,1.73
2023-02-11T06:44:08.557Z,1.71
2023-02-11T06:46:10.816Z,1.76
2023-02-11T06:48:12.460Z,1.74
2023-02-11T06:50:14.816Z,1.77
2023-02-11T06:52:16.510Z,1.75
2023-02-11T06:54:18.090Z,1.81
2023-02-11T06:56:22.136Z,1.78
2023-02-11T06:58:23.670Z,1.81
2023-02-11T07:00:26.593Z,1.66
2023-02-11T07:02:28.526Z,1.67
2023-02-11T07:04:31.118Z,1.72
2023-02-11T07:06:32.740Z,1.79
2023-02-11T07:08:36.764Z,1.87
2023-02-11T07:10:38.365Z,1.96
2023-02-11T07:12:40.014Z,2.10
2023-02-11T07:14:41.964Z,2.16
2023-02-11T07:16:43.613Z,2.06
2023-02-11T07:18:47.439Z,2.04
2023-02-11T07:20:49.104Z,2.14
2023-02-11T07:22:50.620Z,2.35
2023-02-11T07:24:52.226Z,2.29
2023-02-11T07:26:54.042Z,2.32
2023-02-11T07:28:55.624Z,2.07
2023-02-11T07:30:57.406Z,2.18
2023-02-11T07:32:58.953Z,2.22
2023-02-11T07:35:00.571Z,2.25
2023-02-11T07:37:03.042Z,2.24
2023-02-11T07:39:05.018Z,2.25
2023-02-11T07:41:09.667Z,2.37
2023-02-11T07:43:11.147Z,2.40
2023-02-11T07:45:13.984Z,2.35
2023-02-11T07:47:15.846Z,2.42
2023-02-11T07:49:17.565Z,2.44
2023-02-11T07:51:24.401Z,2.46
2023-02-11T07:53:25.956Z,2.66
2023-02-11T07:55:27.514Z,2.64
2023-02-11T07:57:29.384Z,2.66
2023-02-11T07:59:30.978Z,2.67
2023-02-11T08:01:33.220Z,2.61
2023-02-11T08:03:35.847Z,2.64
2023-02-11T08:05:38.862Z,2.76
2023-02-11T08:07:40.460Z,2.66
2023-02-11T08:09:42.122Z,2.78
2023-02-11T08:11:43.901Z,2.76
2023-02-11T08:13:45.912Z,2.86
2023-02-11T08:15:47.505Z,2.88
2023-02-11T08:17:49.030Z,2.81
2023-02-11T08:19:50.592Z,2.81
2023-02-11T08:21:55.652Z,2.84
2023-02-11T08:23:58.277Z,2.97
2023-02-11T08:26:05.141Z,2.91
2023-02-11T08:28:06.829Z,2.91
2023-02-11T08:30:09.446Z,2.89
2023-02-11T08:32:11.383Z,2.91
2023-02-11T08:34:14.739Z,2.82
2023-02-11T08:36:20.373Z,2.83
2023-02-11T08:38:21.931Z,2.72
2023-02-11T08:40:25.181Z,2.85
2023-02-11T08:42:26.663Z,2.89
2023-02-11T08:44:29.477Z,3.10
2023-02-11T08:46:31.036Z,3.20
2023-02-11T08:48:33.056Z,3.28
2023-02-11T08:50:38.588Z,3.19
2023-02-11T08:52:40.360Z,3.20
2023-02-11T08:54:42.477Z,3.33
2023-02-11T08:56:44.915Z,3.51
2023-02-11T08:58:47.930Z,3.90
2023-02-11T09:00:50.249Z,4.25
2023-02-11T09:02:52.213Z,4.29
2023-02-11T09:04:53.769Z,4.35
2023-02-11T09:06:55.351Z,4.37
2023-02-11T09:08:58.707Z,4.17
2023-02-11T09:11:00.197Z,4.09
2023-02-11T09:13:01.962Z,4.12
2023-02-11T09:15:03.701Z,4.21
2023-02-11T09:17:05.538Z,4.32
2023-02-11T09:19:07.046Z,4.37
2023-02-11T09:21:09.780Z,4.32
2023-02-11T09:23:12.281Z,4.60
2023-02-11T09:25:13.876Z,4.97
2023-02-11T09:27:15.706Z,5.07
2023-02-11T09:29:17.342Z,5.30
2023-02-11T09:31:22.389Z,5.38
2023-02-11T09:33:24.111Z,5.45
2023-02-11T09:35:25.644Z,5.86
2023-02-11T09:37:27.352Z,5.86
2023-02-11T09:39:29.248Z,5.82
2023-02-11T09:41:39.287Z,5.50
2023-02-11T09:43:48.186Z,5.35
2023-02-11T09:45:50.445Z,5.15
2023-02-11T09:48:05.124Z,5.08
2023-02-11T09:50:14.663Z,5.13
2023-02-11T09:52:46.910Z,5.12
2023-02-11T09:54:56.388Z,5.22
2023-02-11T09:56:58.105Z,5.26
2023-02-11T09:59:00.218Z,5.40
2023-02-11T10:01:08.912Z,5.29
2023-02-11T10:03:32.178Z,5.32
2023-02-11T10:05:43.057Z,5.15
2023-02-11T10:07:49.795Z,5.20
2023-02-11T10:10:12.937Z,5.15
2023-02-11T10:12:52.750Z,4.95
2023-02-11T10:14:57.020Z,4.84
2023-02-11T10:17:25.861Z,4.90
2023-02-11T10:19:33.087Z,4.69
2023-02-11T10:21:54.168Z,4.78
2023-02-11T10:23:59.878Z,4.51
2023-02-11T10:26:02.961Z,4.59
2023-02-11T10:28:20.184Z,4.50
2023-02-11T10:30:40.696Z,4.20
2023-02-11T10:32:49.173Z,4.25
2023-02-11T10:34:52.944Z,4.14
2023-02-11T10:36:54.501Z,4.20
2023-02-11T10:38:57.450Z,4.09
2023-02-11T10:41:00.012Z,4.30
2023-02-11T10:43:06.236Z,4.53
2023-02-11T10:45:17.716Z,4.55
2023-02-11T10:47:23.817Z,4.82
2023-02-11T10:49:36.284Z,4.80
2023-02-11T10:51:37.800Z,4.94
2023-02-11T10:53:39.697Z,5.17
2023-02-11T10:55:50.988Z,5.31
2023-02-11T10:57:57.875Z,5.37
2023-02-11T11:00:07.883Z,5.15
2023-02-11T11:02:24.704Z,5.12
2023-02-11T11:04:43.892Z,5.20
2023-02-11T11:06:45.912Z,5.04
2023-02-11T11:08:50.742Z,4.98
2023-02-11T11:11:05.265Z,5.02
2023-02-11T11:13:24.448Z,5.06
2023-02-11T11:15:31.296Z,5.17
2023-02-11T11:17:33.173Z,4.92
2023-02-11T11:19:39.105Z,5.17
2023-02-11T11:21:44.322Z,5.28
2023-02-11T11:24:03.753Z,5.30
2023-02-11T11:26:14.861Z,5.26
2023-02-11T11:28:22.662Z,5.24
2023-02-11T11:30:31.668Z,5.47
2023-02-11T11:32:34.166Z,5.77
2023-02-11T11:34:42.515Z,5.92
2023-02-11T11:36:44.736Z,5.68
2023-02-11T11:38:54.930Z,5.51
2023-02-11T11:41:16.775Z,5.34
2023-02-11T11:43:23.141Z,5.34
2023-02-11T11:45:26.518Z,5.61
2023-02-11T11:47:51.144Z,5.90
2023-02-11T11:50:03.596Z,6.19
2023-02-11T11:52:34.434Z,6.20
2023-02-11T11:54:37.294Z,6.19
2023-02-11T11:57:00.957Z,6.16
2023-02-11T11:59:11.117Z,6.10
2023-02-11T12:01:27.639Z,5.95
2023-02-11T12:03:56.871Z,5.78
2023-02-11T12:06:15.908Z,5.84
2023-02-11T12:08:30.697Z,5.81
2023-02-11T12:10:52.130Z,5.68
2023-02-11T12:13:20.429Z,5.93
2023-02-11T12:15:46.545Z,5.95
2023-02-11T12:18:16.076Z,6.03
2023-02-11T12:20:48.238Z,6.06
2023-02-11T12:23:19.685Z,5.91
2023-02-11T12:25:29.708Z,6.02
2023-02-11T12:27:44.154Z,5.97
2023-02-11T12:30:03.324Z,5.61
2023-02-11T12:32:21.810Z,5.68
2023-02-11T12:34:53.379Z,5.77
2023-02-11T12:37:06.206Z,5.68
2023-02-11T12:39:32.823Z,5.64
2023-02-11T12:42:01.629Z,5.53
2023-02-11T12:44:03.491Z,5.49
2023-02-11T12:46:11.742Z,5.42
2023-02-11T12:48:28.453Z,5.36
2023-02-11T12:50:50.576Z,5.45
2023-02-11T12:53:02.158Z,5.49
2023-02-11T12:55:32.264Z,5.43
2023-02-11T12:57:37.116Z,5.42
2023-02-11T12:59:58.645Z,5.39
2023-02-11T13:02:04.093Z,5.55
2023-02-11T13:04:21.634Z,5.22
2023-02-11T13:06:32.942Z,5.21
2023-02-11T13:08:41.775Z,5.35
2023-02-11T13:10:47.156Z,5.23
2023-02-11T13:13:10.280Z,5.43
2023-02-11T13:15:15.605Z,5.13
2023-02-11T13:17:25.466Z,5.18
2023-02-11T13:19:48.132Z,5.37
2023-02-11T13:22:00.288Z,5.37
2023-02-11T13:24:13.113Z,5.43
2023-02-11T13:26:32.840Z,5.43
2023-02-11T13:28:41.199Z,5.32
2023-02-11T13:30:47.956Z,5.20
2023-02-11T13:33:16.078Z,5.17
2023-02-11T13:35:45.881Z,5.14
2023-02-11T13:37:47.888Z,5.14
2023-02-11T13:40:02.425Z,4.97
2023-02-11T13:42:04.584Z,5.09
2023-02-11T13:44:08.962Z,5.04
2023-02-11T13:46:15.505Z,5.09
2023-02-11T13:48:24.748Z,5.15
2023-02-11T13:50:27.852Z,5.21
2023-02-11T13:52:33.067Z,5.08
2023-02-11T13:54:38.878Z,5.02
2023-02-11T13:56:46.275Z,5.08
2023-02-11T13:58:50.871Z,5.01
2023-02-11T14:00:52.817Z,4.99
2023-02-11T14:03:42.145Z,5.06
2023-02-11T14:06:28.409Z,5.14
2023-02-11T14:08:48.874Z,5.03
2023-02-11T14:10:53.372Z,4.97
2023-02-11T14:13:26.433Z,4.94
2023-02-11T14:15:39.060Z,4.95
2023-02-11T14:17:40.842Z,4.99
2023-02-11T14:19:45.458Z,4.90
2023-02-11T14:21:47.324Z,4.75
2023-02-11T14:23:52.529Z,4.96
2023-02-11T14:26:04.646Z,4.81
2023-02-11T14:28:18.796Z,4.82
2023-02-11T14:30:44.265Z,4.74
2023-02-11T14:33:00.807Z,4.87
2023-02-11T14:35:15.645Z,4.78
2023-02-11T14:37:32.102Z,4.86
2023-02-11T14:40:17.738Z,4.81
2023-02-11T14:42:22.795Z,4.94
2023-02-11T14:44:28.103Z,4.86
2023-02-11T14:46:30.791Z,4.91
2023-02-11T14:48:36.076Z,5.01
2023-02-11T14:50:48.607Z,5.01
2023-02-11T14:52:51.293Z,4.99
2023-02-11T14:55:05.027Z,4.98
2023-02-11T14:57:14.399Z,4.87
2023-02-11T14:59:22.255Z,4.82
2023-02-11T15:01:31.442Z,4.91
2023-02-11T15:03:39.067Z,4.98
2023-02-11T15:05:40.724Z,5.06
2023-02-11T15:07:45.057Z,4.99
2023-02-11T15:09:51.092Z,4.98
2023-02-11T15:11:53.547Z,4.98
2023-02-11T15:13:58.973Z,4.97
2023-02-11T15:16:06.519Z,4.96
2023-02-11T15:18:09.571Z,4.96
2023-02-11T15:20:21.011Z,5.00
2023-02-11T15:22:26.948Z,5.04
2023-02-11T15:24:35.214Z,5.00
2023-02-11T15:26:36.780Z,5.15
2023-02-11T15:28:38.376Z,4.96
2023-02-11T15:30:39.958Z,4.79
2023-02-11T15:32:44.865Z,4.95
2023-02-11T15:34:48.225Z,5.06
2023-02-11T15:36:50.130Z,5.04
2023-02-11T15:39:17.251Z,5.14
2023-02-11T15:41:35.561Z,5.07
2023-02-11T15:43:45.586Z,5.03
2023-02-11T15:45:53.011Z,4.97
2023-02-11T15:48:06.180Z,4.92
2023-02-11T15:50:19.204Z,4.87
2023-02-11T15:52:27.066Z,5.20
2023-02-11T15:54:32.045Z,5.15
2023-02-11T15:56:44.077Z,5.09
2023-02-11T15:58:49.132Z,4.97
2023-02-11T16:00:59.547Z,4.90
2023-02-11T16:03:01.297Z,4.79
2023-02-11T16:05:08.858Z,4.76
2023-02-11T16:07:56.906Z,4.79
2023-02-11T16:09:58.663Z,4.82
2023-02-11T16:12:22.410Z,4.84
2023-02-11T16:14:32.385Z,4.76
2023-02-11T16:16:35.359Z,4.69
2023-02-11T16:19:02.129Z,5.00
2023-02-11T16:21:15.681Z,4.94
2023-02-11T16:23:48.743Z,4.93
2023-02-11T16:25:54.856Z,4.96
2023-02-11T16:27:56.491Z,4.90
2023-02-11T16:29:58.672Z,4.88
2023-02-11T16:32:23.209Z,4.86
2023-02-11T16:34:25.713Z,4.65
2023-02-11T16:36:27.389Z,4.55
2023-02-11T16:38:30.322Z,4.52
2023-02-11T16:40:32.298Z,4.59
2023-02-11T16:42:34.639Z,4.64
2023-02-11T16:44:36.284Z,4.74
2023-02-11T16:46:38.174Z,4.66
2023-02-11T16:48:39.817Z,4.68
2023-02-11T16:50:46.292Z,4.66
2023-02-11T16:52:48.445Z,4.62
2023-02-11T16:54:50.034Z,4.70
2023-02-11T16:56:51.844Z,4.66
2023-02-11T16:58:53.386Z,4.72
2023-02-11T17:00:57.061Z,4.67
2023-02-11T17:02:58.926Z,4.69
2023-02-11T17:05:02.890Z,4.76
2023-02-11T17:07:04.699Z,4.65
2023-02-11T17:09:07.761Z,4.68
2023-02-11T17:11:09.412Z,4.68
2023-02-11T17:13:11.133Z,4.71
2023-02-11T17:15:12.659Z,4.82
2023-02-11T17:17:14.190Z,4.62
2023-02-11T17:19:20.334Z,4.51
2023-02-11T17:21:22.772Z,4.64
2023-02-11T17:23:24.435Z,4.72
2023-02-11T17:25:25.980Z,4.77
2023-02-11T17:27:27.814Z,4.79
2023-02-11T17:29:29.502Z,4.83
2023-02-11T17:31:31.149Z,4.77
2023-02-11T17:33:35.826Z,4.78
2023-02-11T17:35:39.819Z,4.82
2023-02-11T17:37:41.859Z,4.77
2023-02-11T17:39:44.566Z,4.74
2023-02-11T17:41:46.122Z,4.71
2023-02-11T17:43:47.753Z,4.73
2023-02-11T17:45:49.587Z,4.67
2023-02-11T17:47:52.271Z,4.72
2023-02-11T17:49:54.001Z,4.75
2023-02-11T17:51:56.058Z,4.80
2023-02-11T17:54:01.607Z,4.73
2023-02-11T17:56:06.291Z,4.88
2023-02-11T17:58:07.971Z,4.85
2023-02-11T18:00:10.536Z,4.88
2023-02-11T18:02:15.471Z,4.88
2023-02-11T18:04:18.995Z,4.88
2023-02-11T18:06:21.499Z,4.92
2023-02-11T18:08:23.332Z,4.79
2023-02-11T18:10:25.094Z,4.63
2023-02-11T18:12:26.614Z,4.75
2023-02-11T18:14:28.256Z,4.69
2023-02-11T18:16:30.360Z,4.70
2023-02-11T18:18:32.120Z,4.78
2023-02-11T18:20:33.608Z,4.66
2023-02-11T18:22:39.172Z,4.66
2023-02-11T18:24:41.662Z,4.86
2023-02-11T18:26:44.126Z,4.82
2023-02-11T18:28:46.347Z,4.74
2023-02-11T18:30:48.122Z,4.64
2023-02-11T18:32:56.209Z,4.62
2023-02-11T18:34:57.750Z,4.62
2023-02-11T18:36:59.442Z,4.74
2023-02-11T18:39:01.298Z,4.76
2023-02-11T18:41:03.663Z,4.73
2023-02-11T18:43:05.238Z,4.78
2023-02-11T18:45:11.371Z,4.84
2023-02-11T18:47:16.024Z,5.01
2023-02-11T18:49:18.650Z,5.06
2023-02-11T18:51:20.643Z,4.89
2023-02-11T18:53:24.491Z,4.79
2023-02-11T18:55:26.479Z,4.77
2023-02-11T18:57:28.261Z,4.83
2023-02-11T18:59:29.880Z,4.70
2023-02-11T19:01:34.201Z,4.74
2023-02-11T19:03:35.884Z,4.83
2023-02-11T19:05:45.638Z,4.79
2023-02-11T19:07:47.269Z,4.74
2023-02-11T19:09:48.908Z,4.75
2023-02-11T19:11:50.557Z,4.86
2023-02-11T19:13:52.929Z,4.93
2023-02-11T19:15:54.647Z,4.93
2023-02-11T19:17:56.936Z,4.58
2023-02-11T19:19:58.519Z,4.57
2023-02-11T19:22:01.763Z,4.68
2023-02-11T19:24:07.732Z,4.78
2023-02-11T19:26:09.368Z,4.60
2023-02-11T19:28:10.968Z,4.63
2023-02-11T19:30:13.066Z,4.60
2023-02-11T19:32:15.765Z,4.58
2023-02-11T19:34:20.023Z,4.57
2023-02-11T19:36:21.553Z,4.55
2023-02-11T19:38:23.108Z,4.57
2023-02-11T19:40:24.679Z,4.65
2023-02-11T19:42:27.704Z,4.66
2023-02-11T19:44:29.371Z,4.68
2023-02-11T19:46:34.214Z,4.78
2023-02-11T19:48:35.853Z,4.74
2023-02-11T19:50:37.444Z,4.64
2023-02-11T19:52:40.595Z,4.73
2023-02-11T19:54:42.602Z,4.75
2023-02-11T19:56:44.862Z,4.90
2023-02-11T19:58:46.473Z,4.85
2023-02-11T20:00:48.381Z,4.72
2023-02-11T20:02:50.462Z,4.51
2023-02-11T20:04:52.118Z,4.56
2023-02-11T20:06:53.703Z,4.76
2023-02-11T20:09:00.371Z,4.66
2023-02-11T20:11:10.553Z,4.55
2023-02-11T20:13:12.154Z,4.62
2023-02-11T20:15:14.359Z,4.62
2023-02-11T20:17:16.091Z,4.65
2023-02-11T20:19:21.282Z,4.67
2023-02-11T20:21:26.569Z,4.51
2023-02-11T20:23:29.888Z,4.38
2023-02-11T20:25:31.695Z,4.48
2023-02-11T20:27:33.340Z,4.65
2023-02-11T20:29:35.128Z,4.65
2023-02-11T20:31:36.870Z,4.65
2023-02-11T20:33:39.772Z,4.63
2023-02-11T20:35:41.328Z,4.77
2023-02-11T20:37:44.192Z,4.68
2023-02-11T20:39:45.851Z,4.40
2023-02-11T20:41:48.107Z,4.39
2023-02-11T20:43:53.251Z,4.32
2023-02-11T20:45:54.859Z,4.38
2023-02-11T20:47:56.534Z,4.51
2023-02-11T20:49:58.396Z,4.52
2023-02-11T20:51:59.934Z,4.49
2023-02-11T20:54:01.534Z,4.65
2023-02-11T20:56:06.452Z,4.78
2023-02-11T20:58:07.943Z,4.83
2023-02-11T21:00:13.014Z,4.77
2023-02-11T21:02:15.285Z,4.52
2023-02-11T21:04:20.715Z,4.39
2023-02-11T21:06:24.599Z,4.57
2023-02-11T21:08:27.194Z,4.69
2023-02-11T21:10:28.834Z,4.77
2023-02-11T21:12:30.868Z,4.65
2023-02-11T21:14:33.920Z,4.41
2023-02-11T21:16:35.855Z,4.44
2023-02-11T21:18:37.668Z,4.33
2023-02-11T21:20:42.935Z,4.33
2023-02-11T21:22:46.108Z,4.10
2023-02-11T21:24:48.128Z,3.96
2023-02-11T21:26:50.205Z,3.90
2023-02-11T21:28:52.497Z,3.93
2023-02-11T21:30:56.088Z,4.17
2023-02-11T21:32:58.970Z,4.42
2023-02-11T21:35:02.308Z,4.36
2023-02-11T21:37:04.324Z,4.55
2023-02-11T21:39:06.326Z,4.54
2023-02-11T21:41:08.294Z,4.51
2023-02-11T21:43:10.442Z,4.63
2023-02-11T21:45:12.113Z,4.56
2023-02-11T21:47:13.784Z,4.55
2023-02-11T21:49:15.505Z,4.53
2023-02-11T21:51:20.181Z,4.61
2023-02-11T21:53:21.839Z,4.60
2023-02-11T21:55:23.396Z,4.63
2023-02-11T21:57:25.441Z,4.66
2023-02-11T21:59:27.009Z,4.72
2023-02-11T22:01:32.186Z,4.91
2023-02-11T22:03:33.708Z,4.92
2023-02-11T22:05:36.009Z,4.87
2023-02-11T22:07:37.619Z,4.85
2023-02-11T22:09:40.074Z,4.86
2023-02-11T22:11:41.953Z,4.88
2023-02-11T22:13:44.270Z,4.74
2023-02-11T22:15:46.050Z,4.73
2023-02-11T22:17:47.552Z,4.64
2023-02-11T22:19:49.464Z,4.76
2023-02-11T22:21:51.124Z,4.78
2023-02-11T22:23:54.996Z,4.76
2023-02-11T22:25:57.683Z,4.68
2023-02-11T22:27:59.195Z,4.62
2023-02-11T22:30:01.114Z,4.65
2023-02-11T22:32:02.810Z,4.72
2023-02-11T22:34:05.508Z,4.62
2023-02-11T22:36:12.407Z,4.59
2023-02-11T22:38:14.086Z,4.59
2023-02-11T22:40:16.621Z,4.64
2023-02-11T22:42:18.224Z,4.60
2023-02-11T22:44:21.389Z,4.59
2023-02-11T22:46:23.455Z,4.67
2023-02-11T22:48:25.174Z,4.64
2023-02-11T22:50:26.705Z,4.67
2023-02-11T22:52:28.314Z,4.69
2023-02-11T22:54:29.936Z,4.75
2023-02-11T22:56:33.171Z,4.74
2023-02-11T22:58:36.278Z,4.73
2023-02-11T23:00:40.824Z,4.71
2023-02-11T23:02:42.360Z,4.72
2023-02-11T23:04:43.947Z,4.35
2023-02-11T23:06:47.432Z,4.11
2023-02-11T23:08:48.980Z,4.01
2023-02-11T23:10:50.540Z,3.90
2023-02-11T23:12:52.083Z,3.88
2023-02-11T23:14:53.632Z,4.11
2023-02-11T23:16:55.361Z,4.39
2023-02-11T23:19:00.120Z,4.47
2023-02-11T23:21:05.024Z,4.51
2023-02-11T23:23:06.774Z,4.57
2023-02-11T23:25:08.497Z,4.63
2023-02-11T23:27:10.054Z,4.63
2023-02-11T23:29:12.453Z,4.60
2023-02-11T23:31:20.525Z,4.34
2023-02-11T23:33:22.960Z,4.20
2023-02-11T23:35:24.802Z,4.16
2023-02-11T23:37:26.435Z,4.26
2023-02-11T23:39:27.972Z,4.28
2023-02-11T23:41:29.612Z,4.37
2023-02-11T23:43:31.271Z,4.39
2023-02-11T23:45:32.833Z,4.46
2023-02-11T23:47:35.283Z,4.57
2023-02-11T23:49:37.155Z,4.61
2023-02-11T23:51:38.709Z,4.59
2023-02-11T23:53:40.635Z,4.71
2023-02-11T23:55:43.530Z,4.84
2023-02-11T23:57:45.576Z,4.80
2023-02-11T23:59:49.745Z,4.69
